Time;durP1;ratioP1;P1;durP2;ratioP2;P2;SDS_P1;SDS_P2;PMS_P1;PMS_P2;Temp;Humidity;BMP_temperature;BMP_pressure;BME280_temperature;BME280_humidity;BME280_pressure;Samples;Min_cycle;Max_cycle;Signal;HPM_P1;HPM_P2
2023/06/15 00:00:33;;;;;;;1.70;1.50;;;18.40;27.30;;;;;;4836524;29;39539;-80
2023/06/15 00:03:33;;;;;;;1.45;1.35;;;18.30;1.00;;;;;;4784982;29;50188;-80
2023/06/15 00:10:23;;;;;;;6.65;1.63;;;18.20;99.90;;;;;;4809128;29;50320;-81
2023/06/15 00:13:16;;;;;;;2.30;1.35;;;18.10;99.90;;;;;;4794365;29;39001;-81
2023/06/15 00:16:30;;;;;;;2.65;1.83;;;18.10;99.90;;;;;;4816841;29;40981;-81
2023/06/15 00:19:47;;;;;;;4.93;1.70;;;18.00;1.00;;;;;;4784945;29;39009;-82
2023/06/15 00:22:26;;;;;;;2.58;1.60;;;18.00;1.00;;;;;;4841039;29;40411;-81
2023/06/15 00:25:28;;;;;;;1.73;1.30;;;18.10;99.90;;;;;;4888298;29;40516;-81
2023/06/15 00:28:21;;;;;;;2.22;1.60;;;18.00;1.00;;;;;;4905862;29;38605;-80
2023/06/15 00:31:43;;;;;;;3.58;1.52;;;17.90;1.00;;;;;;4870399;29;40049;-81
2023/06/15 00:34:26;;;;;;;2.95;1.60;;;17.90;99.90;;;;;;4881747;29;48996;-81
2023/06/15 00:37:55;;;;;;;4.00;2.00;;;17.80;99.90;;;;;;4903375;29;39628;-81
2023/06/15 00:40:56;;;;;;;4.65;1.52;;;17.80;99.90;;;;;;4845691;29;38019;-81
2023/06/15 00:43:59;;;;;;;2.70;1.88;;;17.80;1.00;;;;;;4877212;29;40097;-81
2023/06/15 00:47:31;;;;;;;3.22;1.65;;;17.80;1.00;;;;;;4889758;29;50373;-81
2023/06/15 00:50:34;;;;;;;2.80;1.80;;;17.70;99.90;;;;;;4856695;29;49092;-81
2023/06/15 00:53:46;;;;;;;3.45;1.63;;;17.70;99.90;;;;;;4869634;29;50265;-80
2023/06/15 00:56:38;;;;;;;2.85;1.73;;;17.70;1.00;;;;;;4840551;29;40931;-80
2023/06/15 00:59:21;;;;;;;3.00;1.70;;;17.70;99.90;;;;;;4882571;29;39142;-81
2023/06/15 01:04:17;;;;;;;3.72;1.73;;;17.50;1.00;;;;;;4916166;28;20047;-87
2023/06/15 01:06:51;;;;;;;1.77;1.65;;;17.60;99.90;;;;;;4945385;28;39134;-86
2023/06/15 01:09:21;;;;;;;4.45;1.58;;;17.60;1.00;;;;;;4927857;29;38122;-86
2023/06/15 01:11:52;;;;;;;3.25;1.63;;;17.70;99.90;;;;;;4930416;28;37027;-86
2023/06/15 01:14:20;;;;;;;3.63;1.75;;;17.70;16.30;;;;;;4924695;29;36322;-86
2023/06/15 01:16:52;;;;;;;1.73;1.52;;;17.60;1.00;;;;;;4923710;28;37533;-86
2023/06/15 01:19:57;;;;;;;4.72;1.80;;;17.70;99.90;;;;;;4925023;28;37356;-86
2023/06/15 01:22:55;;;;;;;3.38;1.65;;;17.60;99.90;;;;;;4921765;29;36938;-86
2023/06/15 01:25:33;;;;;;;5.40;1.95;;;17.70;1.00;;;;;;4915263;28;37308;-86
2023/06/15 01:28:05;;;;;;;2.50;1.60;;;17.80;99.90;;;;;;4920862;29;37591;-85
2023/06/15 01:30:36;;;;;;;4.60;1.73;;;17.90;1.00;;;;;;4914201;28;47375;-86
2023/06/15 01:33:02;;;;;;;3.85;1.90;;;18.00;1.00;;;;;;4923619;29;36822;-87
2023/06/15 01:35:29;;;;;;;4.50;1.92;;;18.00;99.90;;;;;;4921860;29;36255;-86
2023/06/15 01:37:55;;;;;;;2.95;1.65;;;18.00;99.90;;;;;;4943591;28;38107;-86
2023/06/15 01:40:21;;;;;;;6.85;1.98;;;17.90;1.00;;;;;;4911391;28;38397;-86
2023/06/15 01:42:49;;;;;;;6.18;1.80;;;17.90;1.00;;;;;;4929982;28;38688;-86
2023/06/15 01:45:16;;;;;;;5.40;1.83;;;18.00;99.90;;;;;;4930107;28;37016;-87
2023/06/15 01:47:43;;;;;;;2.90;1.75;;;18.00;99.90;;;;;;4944898;28;38724;-86
2023/06/15 01:50:10;;;;;;;3.13;2.08;;;18.00;1.00;;;;;;4913420;29;36115;-86
2023/06/15 01:52:37;;;;;;;3.08;1.83;;;17.90;1.00;;;;;;4921840;29;36671;-87
2023/06/15 01:55:04;;;;;;;4.78;2.38;;;17.90;1.00;;;;;;4931182;28;36196;-88
2023/06/15 01:57:38;;;;;;;2.83;2.20;;;17.90;1.00;;;;;;4930110;29;47682;-86
2023/06/15 02:00:10;;;;;;;2.70;1.98;;;17.90;84.80;;;;;;4928366;28;37615;-87
2023/06/15 02:02:37;;;;;;;6.10;2.45;;;17.80;1.00;;;;;;4916563;28;37412;-87
2023/06/15 02:05:10;;;;;;;4.20;1.90;;;17.70;99.90;;;;;;4909795;29;35894;-86
2023/06/15 02:07:36;;;;;;;2.13;1.63;;;17.80;1.00;;;;;;4911124;29;46423;-86
2023/06/15 02:10:03;;;;;;;6.38;2.20;;;17.80;99.90;;;;;;4911213;29;38625;-87
2023/06/15 02:12:30;;;;;;;5.70;2.30;;;17.60;1.00;;;;;;4911266;29;39712;-86
2023/06/15 02:14:57;;;;;;;6.25;2.28;;;17.60;1.00;;;;;;4914714;29;38021;-88
2023/06/15 02:17:24;;;;;;;3.28;2.38;;;17.60;99.90;;;;;;4916009;29;39143;-86
2023/06/15 02:19:50;;;;;;;3.97;2.33;;;17.60;1.00;;;;;;4908597;29;37294;-88
2023/06/15 02:22:17;;;;;;;4.60;2.10;;;17.50;1.00;;;;;;4911373;29;37409;-87
2023/06/15 02:24:44;;;;;;;3.47;2.58;;;17.60;1.00;;;;;;4915882;29;37292;-87
2023/06/15 02:27:10;;;;;;;4.93;2.28;;;17.50;1.00;;;;;;4910421;29;37975;-85
2023/06/15 02:29:36;;;;;;;2.80;2.22;;;17.50;99.90;;;;;;4909452;29;37394;-87
2023/06/15 02:32:02;;;;;;;4.97;2.28;;;17.50;1.00;;;;;;4915185;29;36734;-87
2023/06/15 02:34:28;;;;;;;2.92;2.20;;;17.40;1.00;;;;;;4914514;29;35785;-88
2023/06/15 02:36:54;;;;;;;5.05;2.90;;;17.40;1.00;;;;;;4915089;29;37510;-87
2023/06/15 02:39:21;;;;;;;4.25;2.90;;;17.40;1.00;;;;;;4913056;29;37519;-88
2023/06/15 02:41:47;;;;;;;4.88;2.88;;;17.40;99.90;;;;;;4914845;29;36838;-87
2023/06/15 02:44:15;;;;;;;7.88;3.35;;;17.40;1.00;;;;;;4915576;29;37508;-88
2023/06/15 02:46:41;;;;;;;5.72;2.85;;;17.40;1.00;;;;;;4917062;29;39936;-88
2023/06/15 02:49:08;;;;;;;3.60;2.60;;;17.40;1.00;;;;;;4914295;29;37200;-88
2023/06/15 02:51:35;;;;;;;4.25;2.72;;;17.40;1.00;;;;;;4909941;29;37017;-87
2023/06/15 02:54:01;;;;;;;4.43;3.00;;;17.40;1.00;;;;;;4911886;29;37248;-88
2023/06/15 02:56:29;;;;;;;4.38;3.28;;;17.30;1.00;;;;;;4910810;29;47012;-88
2023/06/15 02:58:55;;;;;;;9.35;3.50;;;17.30;97.10;;;;;;4914134;29;37758;-89
2023/06/15 03:01:23;;;;;;;10.18;3.20;;;17.30;99.90;;;;;;4910522;29;37974;-88
2023/06/15 03:03:50;;;;;;;5.78;3.15;;;17.20;1.00;;;;;;4923171;28;36110;-87
2023/06/15 03:06:16;;;;;;;6.00;3.47;;;17.20;99.90;;;;;;4929669;29;38587;-89
2023/06/15 03:08:43;;;;;;;4.10;3.28;;;17.20;1.00;;;;;;4933411;29;37379;-88
2023/06/15 03:11:09;;;;;;;7.43;3.60;;;17.10;1.00;;;;;;4931189;28;37686;-88
2023/06/15 03:13:35;;;;;;;7.00;4.18;;;17.10;1.00;;;;;;4930952;29;36077;-87
2023/06/15 03:16:02;;;;;;;8.45;4.30;;;17.20;1.00;;;;;;4927216;29;38401;-87
2023/06/15 03:18:31;;;;;;;4.00;3.60;;;17.10;1.00;;;;;;4930851;28;47300;-88
2023/06/15 03:20:58;;;;;;;4.60;3.63;;;17.20;1.00;;;;;;4931998;28;38471;-88
2023/06/15 03:23:25;;;;;;;5.93;3.67;;;17.20;1.00;;;;;;4932543;28;36214;-87
2023/06/15 03:25:52;;;;;;;5.47;3.90;;;17.10;1.00;;;;;;4932631;29;39629;-88
2023/06/15 03:28:24;;;;;;;4.97;3.75;;;17.00;1.00;;;;;;4933318;28;39381;-89
2023/06/15 03:30:52;;;;;;;;;;;17.00;1.00;;;;;;4932384;29;37333;-88
2023/06/15 03:33:21;;;;;;;5.70;3.88;;;17.00;1.00;;;;;;4926222;28;37051;-88
2023/06/15 03:35:48;;;;;;;9.85;3.78;;;17.00;1.00;;;;;;4932277;29;39179;-89
2023/06/15 03:38:16;;;;;;;5.20;3.63;;;17.10;1.00;;;;;;4933125;28;37279;-89
2023/06/15 03:40:45;;;;;;;6.40;3.38;;;17.00;1.00;;;;;;4932989;29;37409;-89
2023/06/15 03:43:18;;;;;;;6.63;4.00;;;17.00;1.00;;;;;;4929765;28;36126;-89
2023/06/15 03:45:44;;;;;;;5.97;3.92;;;16.90;1.00;;;;;;4923338;28;37633;-89
2023/06/15 03:48:11;;;;;;;8.57;4.00;;;16.90;1.00;;;;;;4934340;28;38373;-87
2023/06/15 03:50:37;;;;;;;6.78;3.85;;;16.90;1.00;;;;;;4929880;28;37903;-86
2023/06/15 03:53:03;;;;;;;9.45;3.83;;;16.90;1.00;;;;;;4926619;28;37051;-87
2023/06/15 03:55:30;;;;;;;7.75;3.95;;;16.90;1.00;;;;;;4931968;28;38483;-87
2023/06/15 03:57:56;;;;;;;8.35;4.53;;;16.90;1.00;;;;;;4929732;28;38917;-88
2023/06/15 04:00:22;;;;;;;6.88;4.32;;;16.80;1.00;;;;;;4930645;28;36982;-89
2023/06/15 04:02:48;;;;;;;4.93;3.95;;;16.80;1.00;;;;;;4929671;29;36219;-88
2023/06/15 04:05:14;;;;;;;5.65;3.97;;;16.80;1.00;;;;;;4930999;28;39126;-89
2023/06/15 04:07:43;;;;;;;5.35;4.22;;;16.80;1.00;;;;;;4931885;28;37378;-88
2023/06/15 04:10:10;;;;;;;6.43;4.03;;;16.70;1.00;;;;;;4930379;28;37199;-88
2023/06/15 04:12:36;;;;;;;7.85;4.38;;;16.80;1.00;;;;;;4935144;28;36642;-89
2023/06/15 04:15:05;;;;;;;6.63;3.80;;;16.80;1.00;;;;;;4937516;28;39650;-89
2023/06/15 04:17:32;;;;;;;5.65;4.05;;;16.80;1.00;;;;;;4932797;29;46891;-89
2023/06/15 04:19:58;;;;;;;7.93;4.10;;;16.80;1.00;;;;;;4932707;29;36591;-90
2023/06/15 04:22:25;;;;;;;11.50;4.13;;;16.80;1.00;;;;;;4934681;28;36461;-86
2023/06/15 04:24:51;;;;;;;4.30;3.70;;;16.90;1.00;;;;;;4931476;28;39245;-88
2023/06/15 04:27:19;;;;;;;6.38;4.32;;;16.90;1.00;;;;;;4929057;28;38171;-89
2023/06/15 04:29:49;;;;;;;4.75;4.07;;;17.00;1.00;;;;;;4932900;29;37466;-88
2023/06/15 04:32:17;;;;;;;8.60;4.13;;;17.10;1.00;;;;;;4920471;28;35934;-89
2023/06/15 04:34:46;;;;;;;6.22;4.50;;;17.00;1.00;;;;;;4930777;28;38058;-89
2023/06/15 04:37:13;;;;;;;7.55;4.63;;;17.10;1.00;;;;;;4926043;28;37904;-87
2023/06/15 04:39:39;;;;;;;5.53;4.22;;;17.10;1.00;;;;;;4931192;28;37091;-89
2023/06/15 04:42:09;;;;;;;8.15;3.95;;;17.10;1.00;;;;;;4930166;28;36109;-89
2023/06/15 04:44:35;;;;;;;7.80;4.03;;;17.20;1.00;;;;;;4931691;29;37791;-88
2023/06/15 04:47:04;;;;;;;8.05;4.63;;;17.20;1.00;;;;;;4932228;29;37442;-89
2023/06/15 04:49:33;;;;;;;9.57;4.53;;;17.30;1.00;;;;;;4925759;29;47409;-88
2023/06/15 04:52:00;;;;;;;7.72;4.32;;;17.40;1.00;;;;;;4929483;28;36486;-89
2023/06/15 04:54:26;;;;;;;7.38;4.43;;;17.40;1.00;;;;;;4931713;28;39988;-88
2023/06/15 04:56:52;;;;;;;8.73;4.13;;;17.50;1.00;;;;;;4924099;28;37447;-89
2023/06/15 04:59:18;;;;;;;6.65;4.07;;;17.50;1.00;;;;;;4926652;28;38332;-88
2023/06/15 05:01:44;;;;;;;6.63;4.13;;;17.80;1.00;;;;;;4925599;28;36358;-87
2023/06/15 05:04:10;;;;;;;6.45;4.00;;;18.10;1.00;;;;;;4924807;28;38469;-87
2023/06/15 05:06:37;;;;;;;8.32;4.57;;;18.30;1.00;;;;;;4925877;28;39449;-85
2023/06/15 05:09:03;;;;;;;8.65;4.20;;;18.60;1.00;;;;;;4925079;28;36893;-84
2023/06/15 05:11:29;;;;;;;7.13;3.83;;;18.90;1.00;;;;;;4937543;28;34843;-84
2023/06/15 05:13:55;;;;;;;13.32;4.25;;;19.00;1.00;;;;;;4924322;28;37839;-85
2023/06/15 05:16:22;;;;;;;5.85;3.83;;;19.20;1.00;;;;;;4921208;28;39132;-86
2023/06/15 05:18:48;;;;;;;5.78;4.10;;;19.40;1.00;;;;;;4922846;28;40959;-85
2023/06/15 05:21:14;;;;;;;6.10;3.55;;;19.60;1.00;;;;;;4922626;28;36877;-86
2023/06/15 05:23:40;;;;;;;7.35;4.78;;;19.70;1.00;;;;;;4926119;28;37834;-84
2023/06/15 05:26:06;;;;;;;7.75;3.60;;;19.90;99.90;;;;;;4920419;28;38203;-86
2023/06/15 05:28:32;;;;;;;9.98;4.15;;;20.00;1.00;;;;;;4922870;28;39974;-86
2023/06/15 05:31:00;;;;;;;7.13;4.10;;;20.10;1.00;;;;;;4924579;28;38281;-84
2023/06/15 05:33:26;;;;;;;7.68;4.50;;;20.20;67.70;;;;;;4926617;28;47741;-85
2023/06/15 05:35:52;;;;;;;7.78;4.38;;;20.30;1.00;;;;;;4898345;29;38648;-84
2023/06/15 05:38:20;;;;;;;6.85;4.28;;;20.30;1.00;;;;;;4903746;28;37157;-83
2023/06/15 05:40:46;;;;;;;7.22;3.90;;;20.30;1.00;;;;;;4893978;28;36296;-84
2023/06/15 05:43:12;;;;;;;5.57;3.83;;;20.30;99.90;;;;;;4909922;28;39934;-81
2023/06/15 05:45:38;;;;;;;4.95;3.85;;;20.50;99.90;;;;;;4902170;28;37694;-82
2023/06/15 05:48:04;;;;;;;6.50;4.28;;;20.60;99.90;;;;;;4925049;28;37267;-82
2023/06/15 05:50:31;;;;;;;8.05;4.15;;;20.70;1.00;;;;;;4903209;28;36055;-83
2023/06/15 05:52:57;;;;;;;7.15;4.32;;;20.70;1.00;;;;;;4912803;28;39237;-84
2023/06/15 05:55:23;;;;;;;6.88;3.70;;;20.80;1.00;;;;;;4901940;29;38298;-81
2023/06/15 05:57:49;;;;;;;6.20;4.38;;;21.00;1.00;;;;;;4924632;28;36300;-81
2023/06/15 06:00:16;;;;;;;4.13;3.40;;;21.20;99.90;;;;;;4910288;28;37647;-79
2023/06/15 06:02:42;;;;;;;5.90;3.85;;;21.40;1.00;;;;;;4902104;29;39400;-80
2023/06/15 06:05:08;;;;;;;7.38;4.00;;;21.40;99.90;;;;;;4903348;28;37291;-88
2023/06/15 06:07:35;;;;;;;7.05;3.65;;;21.50;99.90;;;;;;4890022;29;37262;-78
2023/06/15 06:10:01;;;;;;;5.38;3.50;;;21.70;99.90;;;;;;4893880;29;36231;-79
2023/06/15 06:12:27;;;;;;;7.43;3.95;;;21.80;99.90;;;;;;4894391;29;38421;-79
2023/06/15 06:14:54;;;;;;;7.88;3.58;;;21.90;1.00;;;;;;4893102;29;38774;-80
2023/06/15 06:17:21;;;;;;;8.32;3.80;;;22.20;99.90;;;;;;4890475;29;38637;-81
2023/06/15 06:19:51;;;;;;;4.03;3.63;;;22.20;99.90;;;;;;4894056;29;37529;-83
2023/06/15 06:22:17;;;;;;;5.28;4.20;;;22.20;99.90;;;;;;4891296;29;39919;-82
2023/06/15 06:24:43;;;;;;;9.18;4.13;;;22.40;99.90;;;;;;4893944;29;38619;-81
2023/06/15 06:27:09;;;;;;;5.88;3.90;;;22.50;99.90;;;;;;4905362;28;37433;-81
2023/06/15 06:29:35;;;;;;;4.05;3.65;;;22.40;1.00;;;;;;4897199;29;36220;-82
2023/06/15 06:32:02;;;;;;;5.75;3.65;;;22.50;1.00;;;;;;4892621;29;37581;-79
2023/06/15 06:34:28;;;;;;;6.93;4.40;;;22.40;1.00;;;;;;4892570;29;37776;-83
2023/06/15 06:36:54;;;;;;;5.35;3.20;;;22.60;1.00;;;;;;4898435;29;37133;-81
2023/06/15 06:39:20;;;;;;;6.35;3.50;;;22.80;1.00;;;;;;4894270;29;39235;-80
2023/06/15 06:41:47;;;;;;;6.65;3.65;;;22.70;99.90;;;;;;4906351;29;37789;-79
2023/06/15 06:44:15;;;;;;;6.63;3.50;;;22.60;1.00;;;;;;4893056;29;37575;-80
2023/06/15 06:46:41;;;;;;;7.30;3.70;;;22.50;1.00;;;;;;4893382;29;37423;-82
2023/06/15 06:49:07;;;;;;;6.43;3.42;;;22.80;99.90;;;;;;4895041;29;36822;-81
2023/06/15 06:51:33;;;;;;;6.07;3.50;;;22.70;1.00;;;;;;4893258;29;40348;-80
2023/06/15 06:53:59;;;;;;;4.68;3.72;;;23.00;99.90;;;;;;4895599;29;38473;-81
2023/06/15 06:56:26;;;;;;;5.68;3.90;;;23.10;11.90;;;;;;4894959;29;36426;-82
2023/06/15 06:58:52;;;;;;;5.63;3.63;;;22.90;1.00;;;;;;4891658;29;35871;-83
2023/06/15 07:01:18;;;;;;;3.58;2.83;;;23.20;99.90;;;;;;4907828;28;37850;-81
2023/06/15 07:03:44;;;;;;;8.55;3.33;;;23.70;1.00;;;;;;4923492;28;39645;-81
2023/06/15 07:06:10;;;;;;;6.43;3.42;;;23.90;99.90;;;;;;4934731;28;38469;-80
2023/06/15 07:08:36;;;;;;;5.10;3.28;;;24.00;1.00;;;;;;4915753;28;37040;-82
2023/06/15 07:11:02;;;;;;;7.13;3.45;;;24.00;1.00;;;;;;4915062;28;38069;-82
2023/06/15 07:13:28;;;;;;;11.02;3.80;;;24.30;99.90;;;;;;4938742;28;36653;-84
2023/06/15 07:15:57;;;;;;;4.28;3.50;;;24.30;1.00;;;;;;4917741;28;37644;-83
2023/06/15 07:18:26;;;;;;;8.20;4.00;;;24.20;99.90;;;;;;4933807;28;37033;-84
2023/06/15 07:20:55;;;;;;;5.95;3.42;;;24.50;29.20;;;;;;4914121;28;37874;-84
2023/06/15 07:23:24;;;;;;;5.15;3.10;;;24.70;99.90;;;;;;4913064;28;37243;-82
2023/06/15 07:25:52;;;;;;;6.80;3.75;;;24.70;1.00;;;;;;4911203;28;37192;-81
2023/06/15 07:28:19;;;;;;;8.30;3.40;;;24.50;1.00;;;;;;4914566;28;35836;-79
2023/06/15 07:30:49;;;;;;;8.88;3.72;;;24.30;1.00;;;;;;4924208;28;39218;-81
2023/06/15 07:33:16;;;;;;;5.63;3.20;;;24.40;1.00;;;;;;4935255;28;37622;-79
2023/06/15 07:35:42;;;;;;;4.50;3.20;;;24.60;99.90;;;;;;4918766;28;38850;-82
2023/06/15 07:38:08;;;;;;;9.20;3.55;;;25.10;99.90;;;;;;4932516;28;37511;-82
2023/06/15 07:40:35;;;;;;;5.90;3.35;;;25.00;1.00;;;;;;4934785;28;39607;-82
2023/06/15 07:43:02;;;;;;;9.85;3.40;;;25.00;1.00;;;;;;4917113;28;38772;-80
2023/06/15 07:45:28;;;;;;;9.07;3.17;;;25.40;99.90;;;;;;4929477;28;47958;-81
2023/06/15 07:47:54;;;;;;;6.18;2.60;;;25.60;99.90;;;;;;4936418;28;35950;-80
2023/06/15 07:50:20;;;;;;;5.28;3.40;;;25.60;1.00;;;;;;4914039;28;37636;-80
2023/06/15 07:52:46;;;;;;;5.13;3.28;;;25.60;99.90;;;;;;4922275;28;38576;-82
2023/06/15 07:55:12;;;;;;;8.25;2.72;;;25.50;1.00;;;;;;4927277;28;36852;-82
2023/06/15 07:57:38;;;;;;;6.55;2.67;;;25.80;99.90;;;;;;4932967;28;36166;-81
2023/06/15 08:00:06;;;;;;;5.90;3.17;;;25.70;1.00;;;;;;4935406;28;38338;-83
2023/06/15 08:02:32;;;;;;;6.97;2.97;;;25.60;1.00;;;;;;4928860;28;36932;-83
2023/06/15 08:04:58;;;;;;;6.68;2.53;;;26.00;1.00;;;;;;4914747;28;36012;-81
2023/06/15 08:07:24;;;;;;;7.20;2.60;;;25.90;99.90;;;;;;4929681;28;36798;-81
2023/06/15 08:09:50;;;;;;;5.68;2.63;;;26.00;1.00;;;;;;4931016;28;38649;-81
2023/06/15 08:12:17;;;;;;;6.35;2.97;;;26.30;1.00;;;;;;4935191;28;38248;-83
2023/06/15 08:14:43;;;;;;;18.90;3.45;;;26.50;1.00;;;;;;4919766;28;37102;-85
2023/06/15 08:17:09;;;;;;;11.45;3.17;;;26.70;99.90;;;;;;4933230;28;36654;-82
2023/06/15 08:19:36;;;;;;;6.60;2.95;;;26.50;1.00;;;;;;4914256;28;38159;-82
2023/06/15 08:22:02;;;;;;;4.68;2.67;;;26.00;99.90;;;;;;4914368;28;37566;-81
2023/06/15 08:24:28;;;;;;;3.72;2.80;;;25.90;1.00;;;;;;4914559;28;39418;-82
2023/06/15 08:26:54;;;;;;;8.85;3.25;;;25.50;99.90;;;;;;4915585;28;36071;-82
2023/06/15 08:29:21;;;;;;;4.28;3.00;;;25.50;1.00;;;;;;4928936;28;39412;-82
2023/06/15 08:31:47;;;;;;;8.90;2.58;;;25.90;99.90;;;;;;4930360;28;38176;-82
2023/06/15 08:34:13;;;;;;;5.43;2.90;;;26.10;1.00;;;;;;4936579;28;37248;-83
2023/06/15 08:36:39;;;;;;;4.60;2.22;;;26.40;99.90;;;;;;4918367;28;36351;-83
2023/06/15 08:39:05;;;;;;;8.38;3.17;;;27.00;99.90;;;;;;4933551;28;38436;-83
2023/06/15 08:41:33;;;;;;;8.50;2.92;;;27.10;99.90;;;;;;4929191;28;39707;-82
2023/06/15 08:44:00;;;;;;;4.55;2.30;;;26.60;99.90;;;;;;4917156;28;36893;-84
2023/06/15 08:46:27;;;;;;;3.90;2.58;;;26.60;99.90;;;;;;4924537;28;45081;-85
2023/06/15 08:48:55;;;;;;;4.72;2.67;;;26.60;1.00;;;;;;4913463;28;37628;-83
2023/06/15 08:51:24;;;;;;;5.80;2.78;;;26.70;99.90;;;;;;4918681;28;37498;-82
2023/06/15 08:53:57;;;;;;;4.25;2.70;;;26.70;1.00;;;;;;4912933;28;37749;-83
2023/06/15 08:56:23;;;;;;;3.72;2.42;;;27.20;99.90;;;;;;4937414;28;35945;-83
2023/06/15 08:58:50;;;;;;;8.13;2.80;;;26.90;79.00;;;;;;4930956;28;38216;-83
2023/06/15 09:01:23;;;;;;;4.65;2.33;;;26.70;95.70;;;;;;4916760;28;37521;-81
2023/06/15 09:03:55;;;;;;;6.20;3.00;;;26.70;99.90;;;;;;4935924;28;37695;-82
2023/06/15 09:06:22;;;;;;;5.63;2.50;;;26.20;96.90;;;;;;4927878;28;37202;-83
2023/06/15 09:08:49;;;;;;;7.05;2.65;;;26.70;99.90;;;;;;4933359;28;37578;-80
2023/06/15 09:11:16;;;;;;;8.10;3.00;;;26.90;99.90;;;;;;4940841;28;39839;-77
2023/06/15 09:13:43;;;;;;;7.05;2.85;;;27.00;99.90;;;;;;4942758;28;38121;-78
2023/06/15 09:16:09;;;;;;;5.68;2.92;;;27.30;99.90;;;;;;4929432;28;37643;-78
2023/06/15 09:18:51;;;;;;;4.25;2.55;;;27.30;72.70;;;;;;4929425;28;37656;-78
2023/06/15 09:21:21;;;;;;;3.72;2.40;;;27.40;99.90;;;;;;4927622;28;37637;-78
2023/06/15 09:23:48;;;;;;;5.72;2.53;;;28.00;99.90;;;;;;4947457;28;37931;-79
2023/06/15 09:26:21;;;;;;;5.32;3.05;;;27.60;64.70;;;;;;4946283;28;37190;-78
2023/06/15 09:28:47;;;;;;;4.20;2.40;;;27.30;99.90;;;;;;4947232;28;39850;-79
2023/06/15 09:31:33;;;;;;;7.80;3.10;;;27.50;99.90;;;;;;4945320;28;38561;-78
2023/06/15 09:34:01;;;;;;;8.57;2.72;;;26.90;99.90;;;;;;4947707;28;39593;-79
2023/06/15 09:36:32;;;;;;;5.90;3.05;;;27.10;99.90;;;;;;4927010;28;47186;-79
2023/06/15 09:38:58;;;;;;;7.85;3.00;;;27.40;98.20;;;;;;4946663;28;39153;-80
2023/06/15 09:41:25;;;;;;;6.80;3.42;;;26.70;1.00;;;;;;4948243;28;38819;-78
2023/06/15 09:43:51;;;;;;;4.93;2.95;;;26.60;1.00;;;;;;4928188;28;38070;-78
2023/06/15 09:46:19;;;;;;;5.05;2.80;;;26.40;1.00;;;;;;4946866;28;37313;-79
2023/06/15 09:48:46;;;;;;;4.47;2.90;;;26.30;93.60;;;;;;4944563;28;38680;-78
2023/06/15 09:51:15;;;;;;;4.07;2.97;;;26.30;99.80;;;;;;4929626;28;38011;-78
2023/06/15 09:53:43;;;;;;;4.07;2.97;;;26.50;99.90;;;;;;4946082;28;38123;-78
2023/06/15 09:56:10;;;;;;;3.35;2.55;;;26.00;10.60;;;;;;4928717;28;37178;-78
2023/06/15 09:58:36;;;;;;;5.55;2.80;;;26.40;99.90;;;;;;4946720;28;38224;-76
2023/06/15 10:01:09;;;;;;;4.20;2.85;;;26.50;99.90;;;;;;4928527;28;37765;-80
2023/06/15 10:03:37;;;;;;;4.63;2.78;;;26.40;1.00;;;;;;4943689;28;39990;-79
2023/06/15 10:06:11;;;;;;;4.65;2.70;;;26.30;99.90;;;;;;4941832;28;37754;-78
2023/06/15 10:08:43;;;;;;;4.97;3.05;;;25.70;1.00;;;;;;4945351;28;39051;-78
2023/06/15 10:11:09;;;;;;;4.00;2.60;;;25.20;99.90;;;;;;4927821;28;37734;-78
2023/06/15 10:13:41;;;;;;;5.00;2.80;;;25.80;99.90;;;;;;4943438;28;38580;-83
2023/06/15 10:16:11;;;;;;;2.25;1.88;;;27.10;39.80;;;;;;4944897;28;36980;-79
2023/06/15 10:18:39;;;;;;;4.30;2.40;;;28.00;99.90;;;;;;4930781;28;38659;-80
2023/06/15 10:21:10;;;;;;;6.55;2.67;;;28.30;1.00;;;;;;4945960;28;38587;-80
2023/06/15 10:23:40;;;;;;;2.95;2.65;;;28.70;1.00;;;;;;4927737;28;38852;-88
2023/06/15 10:26:07;;;;;;;6.35;2.83;;;29.20;1.00;;;;;;4945061;28;37541;-86
2023/06/15 10:28:38;;;;;;;7.10;2.38;;;28.60;1.00;;;;;;4949089;28;38592;-89
2023/06/15 10:31:21;;;;;;;4.78;2.40;;;28.50;1.00;;;;;;4929035;28;37309;-86
2023/06/15 10:34:04;;;;;;;3.22;2.22;;;28.10;1.00;;;;;;4929606;28;37116;-87
2023/06/15 10:36:44;;;;;;;5.95;2.85;;;28.10;1.00;;;;;;4925706;28;47000;-85
2023/06/15 10:39:22;;;;;;;5.05;2.38;;;28.10;1.00;;;;;;4944062;28;37269;-85
2023/06/15 10:41:53;;;;;;;6.38;2.47;;;28.70;1.00;;;;;;4924555;28;37167;-85
2023/06/15 10:44:19;;;;;;;2.53;2.13;;;29.00;1.00;;;;;;4925850;28;37397;-82
2023/06/15 10:46:45;;;;;;;5.50;2.22;;;29.10;1.00;;;;;;4931492;28;36046;-79
2023/06/15 10:49:11;;;;;;;5.03;2.60;;;29.40;1.00;;;;;;4948273;28;38721;-79
2023/06/15 10:51:49;;;;;;;4.50;2.20;;;29.00;1.00;;;;;;4931944;28;37177;-79
2023/06/15 10:54:23;;;;;;;5.50;2.60;;;29.00;1.00;;;;;;4944128;28;37925;-80
2023/06/15 10:56:50;;;;;;;2.80;2.45;;;28.70;1.00;;;;;;4933587;28;37314;-79
2023/06/15 10:59:41;;;;;;;4.95;2.35;;;28.20;1.00;;;;;;4930063;28;38564;-78
2023/06/15 11:02:31;;;;;;;11.30;3.25;;;28.30;1.00;;;;;;4945796;28;37597;-82
2023/06/15 11:05:04;;;;;;;3.30;2.45;;;29.00;1.00;;;;;;4937450;28;37242;-82
2023/06/15 11:07:38;;;;;;;3.60;2.22;;;29.20;1.00;;;;;;4930835;28;46906;-82
2023/06/15 11:10:28;;;;;;;5.20;2.65;;;29.20;1.00;;;;;;4952209;28;39621;-82
2023/06/15 11:13:04;;;;;;;4.53;3.22;;;28.80;1.00;;;;;;4950039;28;38531;-82
2023/06/15 11:15:33;;;;;;;6.63;2.40;;;29.00;1.00;;;;;;4950082;28;48127;-81
2023/06/15 11:18:05;;;;;;;6.72;2.42;;;28.20;1.00;;;;;;4936271;28;37260;-81
2023/06/15 11:20:59;;;;;;;4.95;2.50;;;28.10;1.00;;;;;;4929481;28;46869;-82
2023/06/15 11:23:32;;;;;;;3.20;2.40;;;28.10;1.00;;;;;;4950895;28;40656;-82
2023/06/15 11:26:01;;;;;;;5.57;2.60;;;28.10;1.00;;;;;;4949789;28;38055;-82
2023/06/15 11:28:34;;;;;;;6.30;2.58;;;27.80;1.00;;;;;;4952220;28;49073;-82
2023/06/15 11:31:02;;;;;;;5.43;2.33;;;27.50;1.00;;;;;;4951192;28;37753;-83
2023/06/15 11:33:30;;;;;;;3.30;2.50;;;27.90;1.00;;;;;;4945699;28;47155;-82
2023/06/15 11:36:01;;;;;;;5.50;2.60;;;28.30;1.00;;;;;;4945135;28;38215;-83
2023/06/15 11:38:29;;;;;;;7.53;2.42;;;28.80;1.00;;;;;;4954363;28;48757;-82
2023/06/15 11:41:11;;;;;;;5.88;2.65;;;29.10;1.00;;;;;;4942363;28;39720;-82
2023/06/15 11:43:41;;;;;;;9.77;2.88;;;29.40;1.00;;;;;;4928470;28;47556;-81
2023/06/15 11:46:11;;;;;;;4.65;2.60;;;29.10;1.00;;;;;;4945349;28;37003;-82
2023/06/15 11:48:44;;;;;;;3.55;2.53;;;28.90;1.00;;;;;;4948568;28;37039;-82
2023/06/15 11:51:12;;;;;;;5.38;2.83;;;28.80;1.00;;;;;;4938067;28;37313;-81
2023/06/15 11:53:39;;;;;;;3.50;2.70;;;28.60;1.00;;;;;;4944765;28;37801;-81
2023/06/15 11:56:13;;;;;;;4.38;2.80;;;29.20;1.00;;;;;;4928244;28;38034;-82
2023/06/15 11:58:40;;;;;;;3.78;2.58;;;29.80;1.00;;;;;;4933545;28;36350;-80
2023/06/15 12:01:07;;;;;;;5.20;2.60;;;30.00;1.00;;;;;;4948468;28;38987;-80
2023/06/15 12:03:37;;;;;;;3.80;2.50;;;30.20;1.00;;;;;;4933070;28;38655;-80
2023/06/15 12:06:03;;;;;;;4.70;2.63;;;30.20;1.00;;;;;;4943174;28;38691;-79
2023/06/15 12:08:31;;;;;;;2.42;2.20;;;30.30;1.00;;;;;;4935808;28;35449;-79
2023/06/15 12:10:58;;;;;;;4.72;2.20;;;30.50;1.00;;;;;;4950766;28;39645;-79
2023/06/15 12:13:26;;;;;;;3.75;2.40;;;29.90;1.00;;;;;;4929509;28;38118;-79
2023/06/15 12:15:53;;;;;;;5.30;2.38;;;29.70;1.00;;;;;;4924843;28;38394;-80
2023/06/15 12:18:19;;;;;;;4.13;2.38;;;29.60;1.00;;;;;;4949406;28;38637;-80
2023/06/15 12:20:47;;;;;;;6.80;2.63;;;29.10;1.00;;;;;;4927653;28;38223;-79
2023/06/15 12:23:28;;;;;;;4.45;2.50;;;28.40;1.00;;;;;;4928705;28;37476;-80
2023/06/15 12:25:56;;;;;;;6.07;2.78;;;28.50;1.00;;;;;;4932895;28;37062;-81
2023/06/15 12:28:24;;;;;;;11.50;3.30;;;29.00;1.00;;;;;;4942132;28;38172;-83
2023/06/15 12:30:51;;;;;;;4.95;2.78;;;29.40;1.00;;;;;;4932174;28;38589;-81
2023/06/15 12:33:30;;;;;;;5.88;3.00;;;29.00;1.00;;;;;;4947335;28;38259;-81
2023/06/15 12:35:58;;;;;;;36.83;6.30;;;28.70;1.00;;;;;;4942361;28;36800;-82
2023/06/15 12:38:26;;;;;;;34.05;8.23;;;28.20;1.00;;;;;;4927484;28;36027;-81
2023/06/15 12:40:53;;;;;;;25.13;4.47;;;28.10;1.00;;;;;;4947438;28;39089;-85
2023/06/15 12:43:20;;;;;;;20.40;5.50;;;28.60;1.00;;;;;;4941901;28;38261;-81
2023/06/15 12:45:48;;;;;;;9.95;3.50;;;29.10;1.00;;;;;;4930358;28;37391;-81
2023/06/15 12:48:14;;;;;;;6.60;2.40;;;29.00;1.00;;;;;;4925385;28;37868;-82
2023/06/15 12:50:40;;;;;;;8.82;2.58;;;28.40;1.00;;;;;;4942408;28;39627;-82
2023/06/15 12:53:07;;;;;;;7.72;3.00;;;27.60;1.00;;;;;;4931272;28;37585;-81
2023/06/15 12:55:33;;;;;;;4.30;2.85;;;27.40;1.00;;;;;;4942403;28;38179;-81
2023/06/15 12:57:59;;;;;;;15.27;3.97;;;26.90;1.00;;;;;;4941467;28;37789;-82
2023/06/15 13:00:27;;;;;;;9.65;2.80;;;27.00;1.00;;;;;;4945326;28;40256;-82
2023/06/15 13:02:54;;;;;;;8.48;3.20;;;26.70;1.00;;;;;;4925696;28;37705;-82
2023/06/15 13:05:21;;;;;;;5.22;2.60;;;26.60;1.00;;;;;;4938681;28;38029;-82
2023/06/15 13:07:47;;;;;;;7.90;2.80;;;26.90;6.80;;;;;;4925703;28;36083;-81
2023/06/15 13:10:14;;;;;;;6.20;2.63;;;27.00;1.00;;;;;;4940512;28;37801;-81
2023/06/15 13:12:41;;;;;;;6.00;3.00;;;27.00;1.00;;;;;;4927616;28;38601;-81
2023/06/15 13:15:07;;;;;;;4.55;2.20;;;26.80;1.00;;;;;;4922618;28;37085;-80